PWSweather.com
Personal Weather Stations
Station Observations
KMSOLIVE48
Olive Branch, MS

Olive Branch, MS

Lat: 34.927, Lon: -89.859

Elevation: 364

Station Type:

Latest ConditionsUpdated 6:19:00 PM CST Thursday, Jan 17, 2019
Currently Today's Max Today's Min Today's Average
Temperature 52.0°F11.1°C 52.7°F11.5°C 46.4°F8.0°C 49.4°F9.7°C
Dew Point 51.6°F10.9°C 52.3°F11.3°C 42.4°F5.8°C 48.6°F9.2°C
Winds Calm Calm 4.3 mph -6.9 kmh - - 0.9 mph 1.4 kmh
Wind Gusts -- 6.9 mph11.1 kmh - -
Humidity 99% 99% 80% 97%
Pressure 30.19 in1022.4 mb 30.29 in1025.7 mb 30.13 in1020.3 mb -
Precipitation - 0.35 in8.9 mm - -
Hour Temp Dew Point Humidity Winds Wind Gusts Pressure Precip Precip Rate Daily Precip Total
06:19 PM 52.0°F11.1°C 51.6°F10.9°C 99% Calm Calm -- 30.19 in1022.4 mb 0.00 in0.0 mm 0.00 in0.0 mm 0.35 in8.9 mm
06:14 PM 52.2°F11.2°C 51.8°F11.0°C 99% Calm Calm -- 30.20 in1022.7 mb 0.00 in0.0 mm 0.00 in0.0 mm 0.35 in8.9 mm
06:09 PM 52.2°F11.2°C 51.8°F11.0°C 99% Calm Calm -- 30.18 in1022.0 mb 0.00 in0.0 mm 0.00 in0.0 mm 0.35 in8.9 mm
06:04 PM 52.0°F11.1°C 51.6°F10.9°C 99% Calm Calm -- 30.18 in1022.0 mb 0.00 in0.0 mm 0.00 in0.0 mm 0.35 in8.9 mm
05:59 PM 52.0°F11.1°C 51.6°F10.9°C 99% Calm Calm -- 30.18 in1022.0 mb 0.00 in0.0 mm 0.00 in0.0 mm 0.35 in8.9 mm
05:54 PM 52.0°F11.1°C 51.6°F10.9°C 99% Calm Calm -- 30.17 in1021.7 mb 0.00 in0.0 mm 0.00 in0.0 mm 0.35 in8.9 mm
05:49 PM 52.2°F11.2°C 51.8°F11.0°C 99% Calm Calm -- 30.18 in1022.0 mb 0.00 in0.0 mm 0.00 in0.0 mm 0.35 in8.9 mm
05:44 PM 52.2°F11.2°C 51.8°F11.0°C 99% Calm Calm -- 30.17 in1021.7 mb 0.00 in0.0 mm 0.00 in0.0 mm 0.35 in8.9 mm
05:39 PM 52.2°F11.2°C 51.8°F11.0°C 99% Calm Calm -- 30.17 in1021.7 mb 0.00 in0.0 mm 0.00 in0.0 mm 0.35 in8.9 mm
05:34 PM 52.2°F11.2°C 51.8°F11.0°C 99% Calm Calm -- 30.17 in1021.7 mb 0.00 in0.0 mm 0.00 in0.0 mm 0.35 in8.9 mm
05:29 PM 52.2°F11.2°C 51.8°F11.0°C 99% Calm Calm -- 30.17 in1021.7 mb 0.00 in0.0 mm 0.00 in0.0 mm 0.35 in8.9 mm
05:24 PM 52.2°F11.2°C 51.8°F11.0°C 99% 0.2 mph WNW0.3 kmh WNW 1.1 mph1.8 kmh 30.17 in1021.7 mb 0.00 in0.0 mm 0.00 in0.0 mm 0.35 in8.9 mm
05:19 PM 52.2°F11.2°C 51.8°F11.0°C 99% Calm Calm -- 30.16 in1021.3 mb 0.00 in0.0 mm 0.00 in0.0 mm 0.35 in8.9 mm
05:14 PM 52.2°F11.2°C 51.8°F11.0°C 99% Calm Calm -- 30.17 in1021.7 mb 0.00 in0.0 mm 0.00 in0.0 mm 0.35 in8.9 mm
05:09 PM 52.2°F11.2°C 51.8°F11.0°C 99% Calm Calm -- 30.16 in1021.3 mb 0.00 in0.0 mm 0.00 in0.0 mm 0.35 in8.9 mm
05:04 PM 52.3°F11.3°C 52.0°F11.1°C 99% Calm Calm -- 30.16 in1021.3 mb 0.00 in0.0 mm 0.00 in0.0 mm 0.35 in8.9 mm
04:59 PM 52.3°F11.3°C 52.0°F11.1°C 99% Calm Calm -- 30.16 in1021.3 mb 0.00 in0.0 mm 0.00 in0.0 mm 0.35 in8.9 mm
04:54 PM 52.3°F11.3°C 52.0°F11.1°C 99% Calm Calm -- 30.17 in1021.7 mb 0.00 in0.0 mm 0.00 in0.0 mm 0.35 in8.9 mm
04:49 PM 52.3°F11.3°C 52.0°F11.1°C 99% 0.4 mph NW0.6 kmh NW 1.1 mph1.8 kmh 30.16 in1021.3 mb 0.00 in0.0 mm 0.00 in0.0 mm 0.35 in8.9 mm
04:44 PM 52.3°F11.3°C 52.0°F11.1°C 99% Calm Calm -- 30.17 in1021.7 mb 0.00 in0.0 mm 0.00 in0.0 mm 0.35 in8.9 mm
04:39 PM 52.5°F11.4°C 52.2°F11.2°C 99% Calm Calm -- 30.17 in1021.7 mb 0.00 in0.0 mm 0.00 in0.0 mm 0.35 in8.9 mm
04:34 PM 52.5°F11.4°C 52.2°F11.2°C 99% 0.7 mph WSW1.1 kmh WSW 1.1 mph1.8 kmh 30.17 in1021.7 mb 0.00 in0.0 mm 0.00 in0.0 mm 0.35 in8.9 mm
04:29 PM 52.5°F11.4°C 52.2°F11.2°C 99% 1.1 mph WSW1.8 kmh WSW 1.1 mph1.8 kmh 30.17 in1021.7 mb 0.00 in0.0 mm 0.00 in0.0 mm 0.35 in8.9 mm
04:24 PM 52.5°F11.4°C 52.2°F11.2°C 99% 0.9 mph WSW1.4 kmh WSW 1.1 mph1.8 kmh 30.17 in1021.7 mb 0.00 in0.0 mm 0.00 in0.0 mm 0.35 in8.9 mm
04:19 PM 52.5°F11.4°C 52.2°F11.2°C 99% 0.4 mph W0.6 kmh W 1.1 mph1.8 kmh 30.17 in1021.7 mb 0.00 in0.0 mm 0.00 in0.0 mm 0.35 in8.9 mm
04:14 PM 52.5°F11.4°C 52.2°F11.2°C 99% 1.1 mph W1.8 kmh W 1.1 mph1.8 kmh 30.17 in1021.7 mb 0.00 in0.0 mm 0.00 in0.0 mm 0.35 in8.9 mm
04:09 PM 52.5°F11.4°C 52.2°F11.2°C 99% 1.1 mph SW1.8 kmh SW 1.1 mph1.8 kmh 30.17 in1021.7 mb 0.00 in0.0 mm 0.00 in0.0 mm 0.35 in8.9 mm
04:04 PM 52.7°F11.5°C 52.3°F11.3°C 99% 0.7 mph NW1.1 kmh NW 1.1 mph1.8 kmh 30.17 in1021.7 mb 0.00 in0.0 mm 0.00 in0.0 mm 0.35 in8.9 mm
03:59 PM 52.7°F11.5°C 52.3°F11.3°C 99% Calm Calm -- 30.17 in1021.7 mb 0.00 in0.0 mm 0.00 in0.0 mm 0.35 in8.9 mm
03:54 PM 52.7°F11.5°C 52.3°F11.3°C 99% Calm Calm -- 30.16 in1021.3 mb 0.00 in0.0 mm 0.00 in0.0 mm 0.35 in8.9 mm
03:49 PM 52.7°F11.5°C 52.3°F11.3°C 99% 0.2 mph W0.3 kmh W 1.1 mph1.8 kmh 30.17 in1021.7 mb 0.00 in0.0 mm 0.00 in0.0 mm 0.35 in8.9 mm
03:44 PM 52.7°F11.5°C 52.3°F11.3°C 99% 0.2 mph WNW0.3 kmh WNW 1.1 mph1.8 kmh 30.16 in1021.3 mb 0.00 in0.0 mm 0.00 in0.0 mm 0.35 in8.9 mm
03:39 PM 52.7°F11.5°C 52.3°F11.3°C 99% 1.1 mph W1.8 kmh W 1.1 mph1.8 kmh 30.17 in1021.7 mb 0.00 in0.0 mm 0.00 in0.0 mm 0.35 in8.9 mm
03:34 PM 52.7°F11.5°C 52.3°F11.3°C 99% Calm Calm -- 30.17 in1021.7 mb 0.00 in0.0 mm 0.00 in0.0 mm 0.35 in8.9 mm
03:29 PM 52.7°F11.5°C 52.3°F11.3°C 99% 1.8 mph W2.9 kmh W 2.2 mph3.5 kmh 30.16 in1021.3 mb 0.00 in0.0 mm 0.00 in0.0 mm 0.35 in8.9 mm
03:24 PM 52.7°F11.5°C 52.3°F11.3°C 99% 0.9 mph WNW1.4 kmh WNW 1.1 mph1.8 kmh 30.16 in1021.3 mb 0.00 in0.0 mm 0.00 in0.0 mm 0.35 in8.9 mm
03:19 PM 52.7°F11.5°C 52.3°F11.3°C 99% Calm Calm -- 30.16 in1021.3 mb 0.00 in0.0 mm 0.00 in0.0 mm 0.35 in8.9 mm
03:14 PM 52.7°F11.5°C 52.2°F11.2°C 98% 1.1 mph WSW1.8 kmh WSW 1.1 mph1.8 kmh 30.15 in1021.0 mb 0.00 in0.0 mm 0.00 in0.0 mm 0.35 in8.9 mm
03:09 PM 52.7°F11.5°C 52.2°F11.2°C 98% 1.1 mph WNW1.8 kmh WNW 1.1 mph1.8 kmh 30.16 in1021.3 mb 0.00 in0.0 mm 0.00 in0.0 mm 0.35 in8.9 mm
03:04 PM 52.7°F11.5°C 52.2°F11.2°C 98% Calm Calm -- 30.15 in1021.0 mb 0.00 in0.0 mm 0.00 in0.0 mm 0.35 in8.9 mm
02:59 PM 52.7°F11.5°C 52.3°F11.3°C 99% 0.9 mph WNW1.4 kmh WNW 1.1 mph1.8 kmh 30.15 in1021.0 mb 0.00 in0.0 mm 0.00 in0.0 mm 0.35 in8.9 mm
02:54 PM 52.7°F11.5°C 52.2°F11.2°C 98% 0.4 mph WNW0.6 kmh WNW 1.1 mph1.8 kmh 30.15 in1021.0 mb 0.00 in0.0 mm 0.00 in0.0 mm 0.35 in8.9 mm
02:49 PM 52.7°F11.5°C 52.3°F11.3°C 99% Calm Calm -- 30.15 in1021.0 mb 0.00 in0.0 mm 0.00 in0.0 mm 0.35 in8.9 mm
02:44 PM 52.7°F11.5°C 52.2°F11.2°C 98% Calm Calm -- 30.14 in1020.7 mb 0.00 in0.0 mm 0.00 in0.0 mm 0.35 in8.9 mm
02:39 PM 52.7°F11.5°C 52.2°F11.2°C 98% 1.6 mph WSW2.6 kmh WSW 2.2 mph3.5 kmh 30.15 in1021.0 mb 0.00 in0.0 mm 0.00 in0.0 mm 0.35 in8.9 mm
02:34 PM 52.7°F11.5°C 52.2°F11.2°C 98% Calm Calm -- 30.14 in1020.7 mb 0.00 in0.0 mm 0.00 in0.0 mm 0.35 in8.9 mm
02:29 PM 52.7°F11.5°C 52.2°F11.2°C 98% 1.8 mph W2.9 kmh W 2.2 mph3.5 kmh 30.14 in1020.7 mb 0.00 in0.0 mm 0.00 in0.0 mm 0.35 in8.9 mm
02:24 PM 52.7°F11.5°C 52.2°F11.2°C 98% Calm Calm -- 30.14 in1020.7 mb 0.00 in0.0 mm 0.00 in0.0 mm 0.35 in8.9 mm
02:19 PM 52.5°F11.4°C 52.0°F11.1°C 98% 2.7 mph NW4.3 kmh NW 3.4 mph5.5 kmh 30.14 in1020.7 mb 0.00 in0.0 mm 0.00 in0.0 mm 0.35 in8.9 mm
02:14 PM 52.5°F11.4°C 52.0°F11.1°C 98% 0.2 mph N0.3 kmh N 1.1 mph1.8 kmh 30.14 in1020.7 mb 0.00 in0.0 mm 0.00 in0.0 mm 0.35 in8.9 mm
02:09 PM 52.5°F11.4°C 52.0°F11.1°C 98% Calm Calm -- 30.14 in1020.7 mb 0.00 in0.0 mm 0.00 in0.0 mm 0.35 in8.9 mm
02:04 PM 52.5°F11.4°C 52.0°F11.1°C 98% 0.4 mph WSW0.6 kmh WSW 1.1 mph1.8 kmh 30.14 in1020.7 mb 0.00 in0.0 mm 0.00 in0.0 mm 0.35 in8.9 mm
01:59 PM 52.7°F11.5°C 52.2°F11.2°C 98% 0.9 mph NW1.4 kmh NW 1.1 mph1.8 kmh 30.14 in1020.7 mb 0.00 in0.0 mm 0.00 in0.0 mm 0.35 in8.9 mm
01:54 PM 52.7°F11.5°C 52.2°F11.2°C 98% Calm Calm -- 30.13 in1020.3 mb 0.00 in0.0 mm 0.00 in0.0 mm 0.35 in8.9 mm
01:49 PM 52.5°F11.4°C 52.0°F11.1°C 98% 1.8 mph NNW2.9 kmh NNW 2.2 mph3.5 kmh 30.13 in1020.3 mb 0.00 in0.0 mm 0.00 in0.0 mm 0.35 in8.9 mm
01:44 PM 52.7°F11.5°C 52.3°F11.3°C 99% 0.9 mph NW1.4 kmh NW 1.1 mph1.8 kmh 30.14 in1020.7 mb 0.00 in0.0 mm 0.00 in0.0 mm 0.35 in8.9 mm
01:39 PM 52.5°F11.4°C 52.2°F11.2°C 99% 0.7 mph NW1.1 kmh NW 1.1 mph1.8 kmh 30.13 in1020.3 mb 0.00 in0.0 mm 0.00 in0.0 mm 0.35 in8.9 mm
01:34 PM 52.3°F11.3°C 52.0°F11.1°C 99% 0.9 mph W1.4 kmh W 2.2 mph3.5 kmh 30.14 in1020.7 mb 0.00 in0.0 mm 0.00 in0.0 mm 0.35 in8.9 mm
01:29 PM 52.3°F11.3°C 52.0°F11.1°C 99% Calm Calm -- 30.14 in1020.7 mb 0.00 in0.0 mm 0.00 in0.0 mm 0.35 in8.9 mm
01:24 PM 52.2°F11.2°C 51.8°F11.0°C 99% 1.8 mph N2.9 kmh N 3.4 mph5.5 kmh 30.14 in1020.7 mb 0.00 in0.0 mm 0.00 in0.0 mm 0.35 in8.9 mm
01:19 PM 52.2°F11.2°C 51.8°F11.0°C 99% 1.6 mph WSW2.6 kmh WSW 2.2 mph3.5 kmh 30.14 in1020.7 mb 0.00 in0.0 mm 0.00 in0.0 mm 0.35 in8.9 mm
01:14 PM 51.8°F11.0°C 51.4°F10.8°C 99% 0.7 mph WSW1.1 kmh WSW 1.1 mph1.8 kmh 30.14 in1020.7 mb 0.00 in0.0 mm 0.00 in0.0 mm 0.35 in8.9 mm
01:09 PM 51.6°F10.9°C 51.3°F10.7°C 99% 1.3 mph W2.1 kmh W 2.2 mph3.5 kmh 30.15 in1021.0 mb 0.00 in0.0 mm 0.00 in0.0 mm 0.35 in8.9 mm
01:04 PM 51.6°F10.9°C 51.3°F10.7°C 99% 2.7 mph SW4.3 kmh SW 3.4 mph5.5 kmh 30.15 in1021.0 mb 0.00 in0.0 mm 0.00 in0.0 mm 0.35 in8.9 mm
12:59 PM 51.6°F10.9°C 51.3°F10.7°C 99% 0.7 mph WSW1.1 kmh WSW 1.1 mph1.8 kmh 30.15 in1021.0 mb 0.00 in0.0 mm 0.00 in0.0 mm 0.35 in8.9 mm
12:54 PM 51.4°F10.8°C 51.1°F10.6°C 99% Calm Calm -- 30.16 in1021.3 mb 0.00 in0.0 mm 0.00 in0.0 mm 0.35 in8.9 mm
12:49 PM 51.4°F10.8°C 51.1°F10.6°C 99% 2.0 mph SW3.2 kmh SW 3.4 mph5.5 kmh 30.15 in1021.0 mb 0.00 in0.0 mm 0.00 in0.0 mm 0.35 in8.9 mm
12:44 PM 51.3°F10.7°C 50.9°F10.5°C 99% 4.0 mph SW6.4 kmh SW 4.5 mph7.2 kmh 30.15 in1021.0 mb 0.00 in0.0 mm 0.00 in0.0 mm 0.35 in8.9 mm
12:39 PM 51.3°F10.7°C 50.9°F10.5°C 99% 1.3 mph W2.1 kmh W 2.2 mph3.5 kmh 30.16 in1021.3 mb 0.00 in0.0 mm 0.00 in0.0 mm 0.35 in8.9 mm
12:34 PM 51.4°F10.8°C 51.1°F10.6°C 99% 1.8 mph SW2.9 kmh SW 2.2 mph3.5 kmh 30.17 in1021.7 mb 0.00 in0.0 mm 0.00 in0.0 mm 0.35 in8.9 mm
12:29 PM 51.3°F10.7°C 50.9°F10.5°C 99% 1.8 mph WSW2.9 kmh WSW 2.2 mph3.5 kmh 30.17 in1021.7 mb 0.00 in0.0 mm 0.00 in0.0 mm 0.35 in8.9 mm
12:24 PM 51.1°F10.6°C 50.7°F10.4°C 99% 1.1 mph WSW1.8 kmh WSW 1.1 mph1.8 kmh 30.17 in1021.7 mb 0.00 in0.0 mm 0.00 in0.0 mm 0.35 in8.9 mm
12:19 PM 51.1°F10.6°C 50.7°F10.4°C 99% 1.3 mph W2.1 kmh W 2.2 mph3.5 kmh 30.17 in1021.7 mb 0.00 in0.0 mm 0.00 in0.0 mm 0.35 in8.9 mm
12:14 PM 51.1°F10.6°C 50.7°F10.4°C 99% Calm Calm -- 30.17 in1021.7 mb 0.00 in0.0 mm 0.00 in0.0 mm 0.35 in8.9 mm
12:09 PM 51.1°F10.6°C 50.7°F10.4°C 99% 1.8 mph SW2.9 kmh SW 2.2 mph3.5 kmh 30.17 in1021.7 mb 0.00 in0.0 mm 0.00 in0.0 mm 0.35 in8.9 mm
12:04 PM 50.9°F10.5°C 50.5°F10.3°C 99% 0.9 mph WSW1.4 kmh WSW 2.2 mph3.5 kmh 30.17 in1021.7 mb 0.00 in0.0 mm 0.00 in0.0 mm 0.35 in8.9 mm
11:59 AM 50.7°F10.4°C 50.4°F10.2°C 99% 0.7 mph W1.1 kmh W 1.1 mph1.8 kmh 30.18 in1022.0 mb 0.00 in0.0 mm 0.00 in0.0 mm 0.35 in8.9 mm
11:54 AM 50.5°F10.3°C 50.2°F10.1°C 99% 2.5 mph SW4.0 kmh SW 3.4 mph5.5 kmh 30.18 in1022.0 mb 0.00 in0.0 mm 0.00 in0.0 mm 0.35 in8.9 mm
11:49 AM 50.5°F10.3°C 50.2°F10.1°C 99% 2.5 mph WSW4.0 kmh WSW 3.4 mph5.5 kmh 30.18 in1022.0 mb 0.00 in0.0 mm 0.00 in0.0 mm 0.35 in8.9 mm
11:44 AM 50.4°F10.2°C 50.0°F10.0°C 99% 1.3 mph ENE2.1 kmh ENE 2.2 mph3.5 kmh 30.19 in1022.4 mb 0.00 in0.0 mm 0.00 in0.0 mm 0.35 in8.9 mm
11:39 AM 50.4°F10.2°C 50.0°F10.0°C 99% 0.4 mph N0.6 kmh N 1.1 mph1.8 kmh 30.20 in1022.7 mb 0.00 in0.0 mm 0.00 in0.0 mm 0.35 in8.9 mm
11:34 AM 50.2°F10.1°C 49.8°F9.9°C 99% 1.3 mph WNW2.1 kmh WNW 2.2 mph3.5 kmh 30.20 in1022.7 mb 0.00 in0.0 mm 0.00 in0.0 mm 0.35 in8.9 mm
11:29 AM 50.0°F10.0°C 49.6°F9.8°C 99% 2.7 mph SW4.3 kmh SW 3.4 mph5.5 kmh 30.20 in1022.7 mb 0.00 in0.0 mm 0.00 in0.0 mm 0.35 in8.9 mm
11:24 AM 49.8°F9.9°C 49.5°F9.7°C 99% 0.2 mph WSW0.3 kmh WSW 1.1 mph1.8 kmh 30.21 in1023.0 mb 0.00 in0.0 mm 0.00 in0.0 mm 0.35 in8.9 mm
11:19 AM 49.8°F9.9°C 49.5°F9.7°C 99% 1.1 mph WSW1.8 kmh WSW 1.1 mph1.8 kmh 30.21 in1023.0 mb 0.00 in0.0 mm 0.00 in0.0 mm 0.35 in8.9 mm
11:14 AM 49.6°F9.8°C 49.3°F9.6°C 99% 1.3 mph WSW2.1 kmh WSW 2.2 mph3.5 kmh 30.22 in1023.4 mb 0.00 in0.0 mm 0.00 in0.0 mm 0.35 in8.9 mm
11:09 AM 49.6°F9.8°C 49.3°F9.6°C 99% 1.6 mph S2.6 kmh S 2.2 mph3.5 kmh 30.22 in1023.4 mb 0.00 in0.0 mm 0.00 in0.0 mm 0.35 in8.9 mm
11:04 AM 49.6°F9.8°C 49.3°F9.6°C 99% 0.2 mph N0.3 kmh N 1.1 mph1.8 kmh 30.22 in1023.4 mb 0.00 in0.0 mm 0.00 in0.0 mm 0.35 in8.9 mm
10:59 AM 49.5°F9.7°C 49.1°F9.5°C 99% 1.3 mph WSW2.1 kmh WSW 2.2 mph3.5 kmh 30.22 in1023.4 mb 0.00 in0.0 mm 0.00 in0.0 mm 0.35 in8.9 mm
10:54 AM 49.5°F9.7°C 49.1°F9.5°C 99% 0.9 mph WSW1.4 kmh WSW 1.1 mph1.8 kmh 30.22 in1023.4 mb 0.00 in0.0 mm 0.00 in0.0 mm 0.35 in8.9 mm
10:49 AM 49.5°F9.7°C 49.1°F9.5°C 99% 0.2 mph W0.3 kmh W 1.1 mph1.8 kmh 30.22 in1023.4 mb 0.00 in0.0 mm 0.00 in0.0 mm 0.35 in8.9 mm
10:44 AM 49.3°F9.6°C 48.9°F9.4°C 99% 0.4 mph NNW0.6 kmh NNW 1.1 mph1.8 kmh 30.22 in1023.4 mb 0.00 in0.0 mm 0.00 in0.0 mm 0.35 in8.9 mm
10:39 AM 49.3°F9.6°C 48.9°F9.4°C 99% 1.8 mph WSW2.9 kmh WSW 2.2 mph3.5 kmh 30.23 in1023.7 mb 0.00 in0.0 mm 0.00 in0.0 mm 0.35 in8.9 mm
10:34 AM 49.3°F9.6°C 48.9°F9.4°C 99% 0.7 mph WSW1.1 kmh WSW 2.2 mph3.5 kmh 30.22 in1023.4 mb 0.00 in0.0 mm 0.00 in0.0 mm 0.35 in8.9 mm
10:29 AM 49.1°F9.5°C 48.7°F9.3°C 99% 0.7 mph W1.1 kmh W 1.1 mph1.8 kmh 30.23 in1023.7 mb 0.00 in0.0 mm 0.00 in0.0 mm 0.35 in8.9 mm
10:24 AM 49.3°F9.6°C 48.9°F9.4°C 99% 0.2 mph W0.3 kmh W 1.1 mph1.8 kmh 30.22 in1023.4 mb 0.00 in0.0 mm 0.00 in0.0 mm 0.35 in8.9 mm
10:19 AM 49.3°F9.6°C 48.9°F9.4°C 99% 0.9 mph NW1.4 kmh NW 2.2 mph3.5 kmh 30.23 in1023.7 mb 0.00 in0.0 mm 0.00 in0.0 mm 0.35 in8.9 mm
10:14 AM 49.1°F9.5°C 48.7°F9.3°C 99% 0.2 mph NW0.3 kmh NW 1.1 mph1.8 kmh 30.22 in1023.4 mb 0.00 in0.0 mm 0.00 in0.0 mm 0.35 in8.9 mm
10:09 AM 49.1°F9.5°C 48.7°F9.3°C 99% 1.3 mph ENE2.1 kmh ENE 2.2 mph3.5 kmh 30.22 in1023.4 mb 0.00 in0.0 mm 0.00 in0.0 mm 0.35 in8.9 mm
10:04 AM 49.1°F9.5°C 48.7°F9.3°C 99% 0.9 mph WSW1.4 kmh WSW 1.1 mph1.8 kmh 30.22 in1023.4 mb 0.07 in1.8 mm 0.05 in1.3 mm 0.35 in8.9 mm
09:59 AM 48.9°F9.4°C 48.6°F9.2°C 99% 2.0 mph SW3.2 kmh SW 2.2 mph3.5 kmh 30.22 in1023.4 mb 0.02 in0.5 mm 0.12 in3.0 mm 0.35 in8.9 mm
09:54 AM 49.1°F9.5°C 48.7°F9.3°C 99% 0.9 mph W1.4 kmh W 1.1 mph1.8 kmh 30.22 in1023.4 mb 0.01 in0.3 mm 0.00 in0.0 mm 0.34 in8.6 mm
09:49 AM 48.9°F9.4°C 48.6°F9.2°C 99% 0.2 mph SSW0.3 kmh SSW 1.1 mph1.8 kmh 30.21 in1023.0 mb 0.01 in0.3 mm 0.00 in0.0 mm 0.34 in8.6 mm
09:44 AM 48.9°F9.4°C 48.6°F9.2°C 99% 1.3 mph W2.1 kmh W 2.2 mph3.5 kmh 30.22 in1023.4 mb 0.01 in0.3 mm 0.00 in0.0 mm 0.34 in8.6 mm
09:39 AM 48.9°F9.4°C 48.6°F9.2°C 99% Calm Calm -- 30.22 in1023.4 mb 0.01 in0.3 mm 0.00 in0.0 mm 0.34 in8.6 mm
09:34 AM 48.7°F9.3°C 48.4°F9.1°C 99% 1.3 mph WSW2.1 kmh WSW 2.2 mph3.5 kmh 30.22 in1023.4 mb 0.01 in0.3 mm 0.00 in0.0 mm 0.34 in8.6 mm
09:29 AM 48.6°F9.2°C 48.2°F9.0°C 99% 1.3 mph SW2.1 kmh SW 2.2 mph3.5 kmh 30.22 in1023.4 mb 0.01 in0.3 mm 0.00 in0.0 mm 0.34 in8.6 mm
09:24 AM 48.6°F9.2°C 48.2°F9.0°C 99% 1.8 mph SW2.9 kmh SW 2.2 mph3.5 kmh 30.22 in1023.4 mb 0.01 in0.3 mm 0.00 in0.0 mm 0.34 in8.6 mm
09:19 AM 48.4°F9.1°C 48.0°F8.9°C 99% 0.7 mph SW1.1 kmh SW 1.1 mph1.8 kmh 30.22 in1023.4 mb 0.01 in0.3 mm 0.00 in0.0 mm 0.34 in8.6 mm
09:14 AM 48.4°F9.1°C 48.0°F8.9°C 99% 0.2 mph W0.3 kmh W 1.1 mph1.8 kmh 30.22 in1023.4 mb 0.01 in0.3 mm 0.12 in3.0 mm 0.34 in8.6 mm
09:09 AM 48.2°F9.0°C 47.8°F8.8°C 99% 0.4 mph WSW0.6 kmh WSW 1.1 mph1.8 kmh 30.22 in1023.4 mb 0.00 in0.0 mm 0.00 in0.0 mm 0.33 in8.4 mm
09:04 AM 48.2°F9.0°C 47.8°F8.8°C 99% 0.2 mph SW0.3 kmh SW 1.1 mph1.8 kmh 30.21 in1023.0 mb 0.00 in0.0 mm 0.00 in0.0 mm 0.33 in8.4 mm
08:59 AM 48.2°F9.0°C 47.8°F8.8°C 99% 1.3 mph WSW2.1 kmh WSW 2.2 mph3.5 kmh 30.21 in1023.0 mb 0.02 in0.5 mm 0.00 in0.0 mm 0.33 in8.4 mm
08:54 AM 48.0°F8.9°C 47.7°F8.7°C 99% 1.3 mph W2.1 kmh W 2.2 mph3.5 kmh 30.21 in1023.0 mb 0.02 in0.5 mm 0.00 in0.0 mm 0.33 in8.4 mm
08:49 AM 48.0°F8.9°C 47.7°F8.7°C 99% 0.9 mph E1.4 kmh E 1.1 mph1.8 kmh 30.21 in1023.0 mb 0.02 in0.5 mm 0.00 in0.0 mm 0.33 in8.4 mm
08:44 AM 48.0°F8.9°C 47.7°F8.7°C 99% Calm Calm -- 30.20 in1022.7 mb 0.02 in0.5 mm 0.00 in0.0 mm 0.33 in8.4 mm
08:39 AM 48.0°F8.9°C 47.7°F8.7°C 99% 0.7 mph WSW1.1 kmh WSW 1.1 mph1.8 kmh 30.21 in1023.0 mb 0.02 in0.5 mm 0.12 in3.0 mm 0.33 in8.4 mm
08:34 AM 48.0°F8.9°C 47.7°F8.7°C 99% 2.2 mph SW3.5 kmh SW 2.2 mph3.5 kmh 30.21 in1023.0 mb 0.01 in0.3 mm 0.00 in0.0 mm 0.32 in8.1 mm
08:29 AM 48.0°F8.9°C 47.7°F8.7°C 99% 2.5 mph SW4.0 kmh SW 3.4 mph5.5 kmh 30.21 in1023.0 mb 0.01 in0.3 mm 0.00 in0.0 mm 0.32 in8.1 mm
08:24 AM 48.0°F8.9°C 47.7°F8.7°C 99% 1.6 mph NE2.6 kmh NE 2.2 mph3.5 kmh 30.21 in1023.0 mb 0.01 in0.3 mm 0.00 in0.0 mm 0.32 in8.1 mm
08:19 AM 48.0°F8.9°C 47.7°F8.7°C 99% 2.2 mph WSW3.5 kmh WSW 2.2 mph3.5 kmh 30.20 in1022.7 mb 0.01 in0.3 mm 0.12 in3.0 mm 0.32 in8.1 mm
08:14 AM 47.8°F8.8°C 47.5°F8.6°C 99% 0.9 mph SW1.4 kmh SW 2.2 mph3.5 kmh 30.20 in1022.7 mb 0.00 in0.0 mm 0.00 in0.0 mm 0.31 in7.9 mm
08:09 AM 47.8°F8.8°C 47.5°F8.6°C 99% 1.3 mph SW2.1 kmh SW 2.2 mph3.5 kmh 30.20 in1022.7 mb 0.00 in0.0 mm 0.00 in0.0 mm 0.31 in7.9 mm
08:04 AM 47.7°F8.7°C 47.3°F8.5°C 99% 0.7 mph SE1.1 kmh SE 1.1 mph1.8 kmh 30.21 in1023.0 mb 0.00 in0.0 mm 0.00 in0.0 mm 0.31 in7.9 mm
07:59 AM 47.7°F8.7°C 47.3°F8.5°C 99% 0.2 mph W0.3 kmh W 1.1 mph1.8 kmh 30.20 in1022.7 mb 0.00 in0.0 mm 0.00 in0.0 mm 0.31 in7.9 mm
07:54 AM 47.7°F8.7°C 47.3°F8.5°C 99% 1.1 mph SW1.8 kmh SW 1.1 mph1.8 kmh 30.21 in1023.0 mb 0.00 in0.0 mm 0.00 in0.0 mm 0.31 in7.9 mm
07:49 AM 47.7°F8.7°C 47.3°F8.5°C 99% 2.2 mph S3.5 kmh S 3.4 mph5.5 kmh 30.21 in1023.0 mb 0.00 in0.0 mm 0.00 in0.0 mm 0.31 in7.9 mm
07:44 AM 47.5°F8.6°C 47.1°F8.4°C 99% 0.7 mph WSW1.1 kmh WSW 1.1 mph1.8 kmh 30.20 in1022.7 mb 0.00 in0.0 mm 0.00 in0.0 mm 0.31 in7.9 mm
07:39 AM 47.5°F8.6°C 47.1°F8.4°C 99% Calm Calm -- 30.20 in1022.7 mb 0.00 in0.0 mm 0.00 in0.0 mm 0.31 in7.9 mm
07:34 AM 47.5°F8.6°C 47.1°F8.4°C 99% 0.4 mph WNW0.6 kmh WNW 1.1 mph1.8 kmh 30.20 in1022.7 mb 0.00 in0.0 mm 0.00 in0.0 mm 0.31 in7.9 mm
07:29 AM 47.5°F8.6°C 47.1°F8.4°C 99% 1.3 mph WSW2.1 kmh WSW 2.2 mph3.5 kmh 30.20 in1022.7 mb 0.00 in0.0 mm 0.00 in0.0 mm 0.31 in7.9 mm
07:24 AM 47.3°F8.5°C 46.9°F8.3°C 99% 0.2 mph SW0.3 kmh SW 1.1 mph1.8 kmh 30.20 in1022.7 mb 0.00 in0.0 mm 0.00 in0.0 mm 0.31 in7.9 mm
07:19 AM 47.3°F8.5°C 46.9°F8.3°C 99% 1.1 mph S1.8 kmh S 2.2 mph3.5 kmh 30.20 in1022.7 mb 0.00 in0.0 mm 0.00 in0.0 mm 0.31 in7.9 mm
07:14 AM 47.3°F8.5°C 46.9°F8.3°C 99% 1.8 mph WSW2.9 kmh WSW 3.4 mph5.5 kmh 30.20 in1022.7 mb 0.00 in0.0 mm 0.00 in0.0 mm 0.31 in7.9 mm
07:09 AM 47.3°F8.5°C 46.9°F8.3°C 99% 0.2 mph WNW0.3 kmh WNW 1.1 mph1.8 kmh 30.21 in1023.0 mb 0.00 in0.0 mm 0.00 in0.0 mm 0.31 in7.9 mm
07:04 AM 47.3°F8.5°C 46.9°F8.3°C 99% 1.8 mph SE2.9 kmh SE 4.5 mph7.2 kmh 30.21 in1023.0 mb 0.00 in0.0 mm 0.00 in0.0 mm 0.31 in7.9 mm
06:59 AM 47.3°F8.5°C 46.9°F8.3°C 99% 1.8 mph ESE2.9 kmh ESE 2.2 mph3.5 kmh 30.21 in1023.0 mb 0.01 in0.3 mm 0.00 in0.0 mm 0.31 in7.9 mm
06:54 AM 47.1°F8.4°C 46.8°F8.2°C 99% 0.7 mph W1.1 kmh W 1.1 mph1.8 kmh 30.21 in1023.0 mb 0.01 in0.3 mm 0.00 in0.0 mm 0.31 in7.9 mm
06:49 AM 47.1°F8.4°C 46.8°F8.2°C 99% 0.2 mph E0.3 kmh E 1.1 mph1.8 kmh 30.20 in1022.7 mb 0.01 in0.3 mm 0.00 in0.0 mm 0.31 in7.9 mm
06:44 AM 47.1°F8.4°C 46.8°F8.2°C 99% 1.3 mph E2.1 kmh E 3.4 mph5.5 kmh 30.20 in1022.7 mb 0.01 in0.3 mm 0.00 in0.0 mm 0.31 in7.9 mm
06:39 AM 47.1°F8.4°C 46.8°F8.2°C 99% 1.3 mph S2.1 kmh S 2.2 mph3.5 kmh 30.21 in1023.0 mb 0.01 in0.3 mm 0.00 in0.0 mm 0.31 in7.9 mm
06:34 AM 47.1°F8.4°C 46.8°F8.2°C 99% 0.7 mph W1.1 kmh W 1.1 mph1.8 kmh 30.21 in1023.0 mb 0.01 in0.3 mm 0.00 in0.0 mm 0.31 in7.9 mm
06:29 AM 47.1°F8.4°C 46.8°F8.2°C 99% 0.2 mph NNE0.3 kmh NNE 1.1 mph1.8 kmh 30.21 in1023.0 mb 0.01 in0.3 mm 0.00 in0.0 mm 0.31 in7.9 mm
06:24 AM 47.1°F8.4°C 46.8°F8.2°C 99% 0.9 mph SE1.4 kmh SE 1.1 mph1.8 kmh 30.21 in1023.0 mb 0.01 in0.3 mm 0.00 in0.0 mm 0.31 in7.9 mm
06:19 AM 47.1°F8.4°C 46.8°F8.2°C 99% Calm Calm -- 30.20 in1022.7 mb 0.01 in0.3 mm 0.00 in0.0 mm 0.31 in7.9 mm
06:14 AM 47.1°F8.4°C 46.8°F8.2°C 99% 1.8 mph WSW2.9 kmh WSW 2.2 mph3.5 kmh 30.20 in1022.7 mb 0.01 in0.3 mm 0.00 in0.0 mm 0.31 in7.9 mm
06:09 AM 46.9°F8.3°C 46.6°F8.1°C 99% 1.3 mph WSW2.1 kmh WSW 2.2 mph3.5 kmh 30.21 in1023.0 mb 0.01 in0.3 mm 0.00 in0.0 mm 0.31 in7.9 mm
06:04 AM 46.9°F8.3°C 46.6°F8.1°C 99% 1.3 mph WSW2.1 kmh WSW 2.2 mph3.5 kmh 30.20 in1022.7 mb 0.01 in0.3 mm 0.00 in0.0 mm 0.31 in7.9 mm
05:59 AM 46.9°F8.3°C 46.6°F8.1°C 99% 0.4 mph E0.6 kmh E 1.1 mph1.8 kmh 30.21 in1023.0 mb 0.09 in2.3 mm 0.00 in0.0 mm 0.30 in7.6 mm
05:54 AM 46.9°F8.3°C 46.6°F8.1°C 99% 0.9 mph WSW1.4 kmh WSW 1.1 mph1.8 kmh 30.21 in1023.0 mb 0.09 in2.3 mm 0.24 in6.1 mm 0.30 in7.6 mm
05:49 AM 46.9°F8.3°C 46.6°F8.1°C 99% 1.1 mph WSW1.8 kmh WSW 1.1 mph1.8 kmh 30.21 in1023.0 mb 0.07 in1.8 mm 0.00 in0.0 mm 0.28 in7.1 mm
05:44 AM 46.9°F8.3°C 46.6°F8.1°C 99% 0.2 mph WSW0.3 kmh WSW 1.1 mph1.8 kmh 30.22 in1023.4 mb 0.07 in1.8 mm 0.00 in0.0 mm 0.28 in7.1 mm
05:39 AM 46.9°F8.3°C 46.6°F8.1°C 99% 0.9 mph WSW1.4 kmh WSW 1.1 mph1.8 kmh 30.21 in1023.0 mb 0.07 in1.8 mm 0.00 in0.0 mm 0.28 in7.1 mm
05:34 AM 46.9°F8.3°C 46.6°F8.1°C 99% 0.7 mph SW1.1 kmh SW 1.1 mph1.8 kmh 30.21 in1023.0 mb 0.07 in1.8 mm 0.00 in0.0 mm 0.28 in7.1 mm
05:29 AM 46.9°F8.3°C 46.6°F8.1°C 99% 0.4 mph SW0.6 kmh SW 1.1 mph1.8 kmh 30.21 in1023.0 mb 0.07 in1.8 mm 0.00 in0.0 mm 0.28 in7.1 mm
05:24 AM 47.1°F8.4°C 46.8°F8.2°C 99% 0.2 mph W0.3 kmh W 1.1 mph1.8 kmh 30.21 in1023.0 mb 0.07 in1.8 mm 0.36 in9.1 mm 0.28 in7.1 mm
05:19 AM 47.1°F8.4°C 46.8°F8.2°C 99% Calm Calm -- 30.21 in1023.0 mb 0.04 in1.0 mm 0.24 in6.1 mm 0.25 in6.4 mm
05:14 AM 46.9°F8.3°C 46.6°F8.1°C 99% 1.1 mph WNW1.8 kmh WNW 1.1 mph1.8 kmh 30.21 in1023.0 mb 0.02 in0.5 mm 0.00 in0.0 mm 0.23 in5.8 mm
05:09 AM 46.9°F8.3°C 46.6°F8.1°C 99% 0.7 mph WSW1.1 kmh WSW 1.1 mph1.8 kmh 30.21 in1023.0 mb 0.02 in0.5 mm 0.12 in3.0 mm 0.23 in5.8 mm
05:04 AM 47.1°F8.4°C 46.8°F8.2°C 99% 1.3 mph S2.1 kmh S 2.2 mph3.5 kmh 30.21 in1023.0 mb 0.01 in0.3 mm 0.00 in0.0 mm 0.22 in5.6 mm
04:59 AM 47.1°F8.4°C 46.8°F8.2°C 99% 0.9 mph WSW1.4 kmh WSW 1.1 mph1.8 kmh 30.22 in1023.4 mb 0.08 in2.0 mm 0.12 in3.0 mm 0.21 in5.3 mm
04:54 AM 46.9°F8.3°C 46.6°F8.1°C 99% 0.9 mph WNW1.4 kmh WNW 1.1 mph1.8 kmh 30.22 in1023.4 mb 0.07 in1.8 mm 0.12 in3.0 mm 0.20 in5.1 mm
04:49 AM 47.1°F8.4°C 46.8°F8.2°C 99% Calm Calm -- 30.22 in1023.4 mb 0.06 in1.5 mm 0.12 in3.0 mm 0.19 in4.8 mm
04:44 AM 47.1°F8.4°C 46.8°F8.2°C 99% 0.7 mph W1.1 kmh W 1.1 mph1.8 kmh 30.20 in1022.7 mb 0.05 in1.3 mm 0.00 in0.0 mm 0.18 in4.6 mm
04:39 AM 46.9°F8.3°C 46.6°F8.1°C 99% 0.4 mph WSW0.6 kmh WSW 1.1 mph1.8 kmh 30.21 in1023.0 mb 0.05 in1.3 mm 0.00 in0.0 mm 0.18 in4.6 mm
04:34 AM 46.9°F8.3°C 46.6°F8.1°C 99% 1.1 mph ESE1.8 kmh ESE 2.2 mph3.5 kmh 30.21 in1023.0 mb 0.05 in1.3 mm 0.00 in0.0 mm 0.18 in4.6 mm
04:29 AM 46.9°F8.3°C 46.6°F8.1°C 99% 0.9 mph SW1.4 kmh SW 1.1 mph1.8 kmh 30.21 in1023.0 mb 0.05 in1.3 mm 0.00 in0.0 mm 0.18 in4.6 mm
04:24 AM 46.9°F8.3°C 46.6°F8.1°C 99% 0.9 mph WNW1.4 kmh WNW 1.1 mph1.8 kmh 30.21 in1023.0 mb 0.05 in1.3 mm 0.12 in3.0 mm 0.18 in4.6 mm
04:19 AM 46.9°F8.3°C 46.6°F8.1°C 99% 0.2 mph NW0.3 kmh NW 1.1 mph1.8 kmh 30.22 in1023.4 mb 0.04 in1.0 mm 0.12 in3.0 mm 0.17 in4.3 mm
04:14 AM 46.9°F8.3°C 46.6°F8.1°C 99% 1.3 mph SW2.1 kmh SW 2.2 mph3.5 kmh 30.22 in1023.4 mb 0.03 in0.8 mm 0.24 in6.1 mm 0.16 in4.1 mm
04:09 AM 46.9°F8.3°C 46.6°F8.1°C 99% 0.4 mph WSW0.6 kmh WSW 1.1 mph1.8 kmh 30.22 in1023.4 mb 0.01 in0.3 mm 0.00 in0.0 mm 0.14 in3.6 mm
04:04 AM 46.9°F8.3°C 46.6°F8.1°C 99% 0.2 mph W0.3 kmh W 1.1 mph1.8 kmh 30.21 in1023.0 mb 0.01 in0.3 mm 0.00 in0.0 mm 0.14 in3.6 mm
03:59 AM 46.9°F8.3°C 46.6°F8.1°C 99% 2.7 mph SW4.3 kmh SW 3.4 mph5.5 kmh 30.22 in1023.4 mb 0.05 in1.3 mm 0.00 in0.0 mm 0.13 in3.3 mm
03:54 AM 46.9°F8.3°C 46.6°F8.1°C 99% 2.2 mph WSW3.5 kmh WSW 3.4 mph5.5 kmh 30.21 in1023.0 mb 0.05 in1.3 mm 0.00 in0.0 mm 0.13 in3.3 mm
03:49 AM 46.9°F8.3°C 46.6°F8.1°C 99% 1.8 mph S2.9 kmh S 2.2 mph3.5 kmh 30.21 in1023.0 mb 0.05 in1.3 mm 0.00 in0.0 mm 0.13 in3.3 mm
03:44 AM 46.9°F8.3°C 46.6°F8.1°C 99% 0.9 mph E1.4 kmh E 2.2 mph3.5 kmh 30.21 in1023.0 mb 0.05 in1.3 mm 0.00 in0.0 mm 0.13 in3.3 mm
03:39 AM 46.8°F8.2°C 46.4°F8.0°C 99% 2.2 mph SSE3.5 kmh SSE 2.2 mph3.5 kmh 30.22 in1023.4 mb 0.05 in1.3 mm 0.12 in3.0 mm 0.13 in3.3 mm
03:34 AM 46.8°F8.2°C 46.4°F8.0°C 99% 0.4 mph SW0.6 kmh SW 1.1 mph1.8 kmh 30.22 in1023.4 mb 0.04 in1.0 mm 0.00 in0.0 mm 0.12 in3.0 mm
03:29 AM 46.8°F8.2°C 46.4°F8.0°C 99% Calm Calm -- 30.22 in1023.4 mb 0.04 in1.0 mm 0.12 in3.0 mm 0.12 in3.0 mm
03:24 AM 46.8°F8.2°C 46.4°F8.0°C 99% 0.9 mph NE1.4 kmh NE 1.1 mph1.8 kmh 30.22 in1023.4 mb 0.03 in0.8 mm 0.12 in3.0 mm 0.11 in2.8 mm
03:19 AM 46.6°F8.1°C 46.2°F7.9°C 99% 0.2 mph WSW0.3 kmh WSW 1.1 mph1.8 kmh 30.22 in1023.4 mb 0.02 in0.5 mm 0.00 in0.0 mm 0.10 in2.5 mm
03:14 AM 46.6°F8.1°C 46.2°F7.9°C 99% 1.3 mph S2.1 kmh S 2.2 mph3.5 kmh 30.22 in1023.4 mb 0.02 in0.5 mm 0.00 in0.0 mm 0.10 in2.5 mm
03:09 AM 46.6°F8.1°C 46.2°F7.9°C 99% 2.0 mph SW3.2 kmh SW 4.5 mph7.2 kmh 30.22 in1023.4 mb 0.02 in0.5 mm 0.12 in3.0 mm 0.10 in2.5 mm
03:04 AM 46.4°F8.0°C 46.0°F7.8°C 99% 1.1 mph ENE1.8 kmh ENE 1.1 mph1.8 kmh 30.22 in1023.4 mb 0.01 in0.3 mm 0.00 in0.0 mm 0.09 in2.3 mm
02:59 AM 46.6°F8.1°C 46.2°F7.9°C 99% 1.3 mph WSW2.1 kmh WSW 2.2 mph3.5 kmh 30.23 in1023.7 mb 0.07 in1.8 mm 0.24 in6.1 mm 0.08 in2.0 mm
02:54 AM 46.6°F8.1°C 46.2°F7.9°C 99% 0.2 mph ENE0.3 kmh ENE 1.1 mph1.8 kmh 30.23 in1023.7 mb 0.05 in1.3 mm 0.12 in3.0 mm 0.06 in1.5 mm
02:49 AM 46.6°F8.1°C 46.2°F7.9°C 99% 0.2 mph E0.3 kmh E 1.1 mph1.8 kmh 30.24 in1024.0 mb 0.04 in1.0 mm 0.00 in0.0 mm 0.05 in1.3 mm
02:44 AM 46.6°F8.1°C 46.2°F7.9°C 99% 1.1 mph E1.8 kmh E 2.2 mph3.5 kmh 30.24 in1024.0 mb 0.04 in1.0 mm 0.12 in3.0 mm 0.05 in1.3 mm
02:39 AM 46.6°F8.1°C 46.2°F7.9°C 99% 1.1 mph NE1.8 kmh NE 2.2 mph3.5 kmh 30.24 in1024.0 mb 0.03 in0.8 mm 0.24 in6.1 mm 0.04 in1.0 mm
02:34 AM 46.8°F8.2°C 46.2°F7.9°C 98% 1.6 mph ESE2.6 kmh ESE 3.4 mph5.5 kmh 30.24 in1024.0 mb 0.01 in0.3 mm 0.12 in3.0 mm 0.02 in0.5 mm
02:29 AM 46.8°F8.2°C 46.2°F7.9°C 98% 0.4 mph ENE0.6 kmh ENE 1.1 mph1.8 kmh 30.25 in1024.4 mb 0.00 in0.0 mm 0.00 in0.0 mm 0.01 in0.3 mm
02:24 AM 46.8°F8.2°C 46.0°F7.8°C 97% 0.4 mph SW0.6 kmh SW 1.1 mph1.8 kmh 30.24 in1024.0 mb 0.00 in0.0 mm 0.00 in0.0 mm 0.01 in0.3 mm
02:19 AM 46.8°F8.2°C 46.0°F7.8°C 97% 3.4 mph SW5.5 kmh SW 4.5 mph7.2 kmh 30.25 in1024.4 mb 0.00 in0.0 mm 0.00 in0.0 mm 0.01 in0.3 mm
02:14 AM 46.8°F8.2°C 46.0°F7.8°C 97% 1.1 mph SSE1.8 kmh SSE 2.2 mph3.5 kmh 30.25 in1024.4 mb 0.00 in0.0 mm 0.00 in0.0 mm 0.01 in0.3 mm
02:09 AM 46.8°F8.2°C 46.0°F7.8°C 97% 0.9 mph E1.4 kmh E 1.1 mph1.8 kmh 30.25 in1024.4 mb 0.00 in0.0 mm 0.00 in0.0 mm 0.01 in0.3 mm
02:04 AM 46.8°F8.2°C 46.0°F7.8°C 97% 0.7 mph SSW1.1 kmh SSW 1.1 mph1.8 kmh 30.25 in1024.4 mb 0.07 in1.8 mm 0.07 in1.8 mm 0.01 in0.3 mm
01:59 AM 46.9°F8.3°C 46.0°F7.8°C 96% 0.7 mph SSE1.1 kmh SSE 1.1 mph1.8 kmh 30.26 in1024.7 mb 0.01 in0.3 mm 0.12 in3.0 mm 0.01 in0.3 mm
01:54 AM 47.1°F8.4°C 45.7°F7.6°C 95% 1.3 mph WSW2.1 kmh WSW 2.2 mph3.5 kmh 30.26 in1024.7 mb 0.00 in0.0 mm 0.00 in0.0 mm 0.00 in0.0 mm
01:49 AM 47.3°F8.5°C 45.5°F7.5°C 94% 1.8 mph E2.9 kmh E 3.4 mph5.5 kmh 30.25 in1024.4 mb 0.00 in0.0 mm 0.00 in0.0 mm 0.00 in0.0 mm
01:44 AM 47.7°F8.7°C 45.5°F7.5°C 92% 2.9 mph SW4.7 kmh SW 4.5 mph7.2 kmh 30.26 in1024.7 mb 0.00 in0.0 mm 0.00 in0.0 mm 0.00 in0.0 mm
01:39 AM 47.8°F8.8°C 45.5°F7.5°C 91% 1.3 mph SW2.1 kmh SW 2.2 mph3.5 kmh 30.27 in1025.1 mb 0.00 in0.0 mm 0.00 in0.0 mm 0.00 in0.0 mm
01:34 AM 47.8°F8.8°C 45.0°F7.2°C 90% 0.9 mph SE1.4 kmh SE 2.2 mph3.5 kmh 30.26 in1024.7 mb 0.00 in0.0 mm 0.00 in0.0 mm 0.00 in0.0 mm
01:29 AM 48.0°F8.9°C 45.0°F7.2°C 89% 0.7 mph E1.1 kmh E 1.1 mph1.8 kmh 30.27 in1025.1 mb 0.00 in0.0 mm 0.00 in0.0 mm 0.00 in0.0 mm
01:24 AM 48.2°F9.0°C 44.8°F7.1°C 88% 2.9 mph SW4.7 kmh SW 3.4 mph5.5 kmh 30.27 in1025.1 mb 0.00 in0.0 mm 0.00 in0.0 mm 0.00 in0.0 mm
01:19 AM 48.2°F9.0°C 44.8°F7.1°C 88% 2.2 mph SW3.5 kmh SW 4.5 mph7.2 kmh 30.27 in1025.1 mb 0.00 in0.0 mm 0.00 in0.0 mm 0.00 in0.0 mm
01:14 AM 48.2°F9.0°C 44.6°F7.0°C 87% 4.3 mph W6.9 kmh W 5.8 mph9.3 kmh 30.27 in1025.1 mb 0.00 in0.0 mm 0.00 in0.0 mm 0.00 in0.0 mm
01:09 AM 48.4°F9.1°C 44.4°F6.9°C 86% 0.9 mph N1.4 kmh N 1.1 mph1.8 kmh 30.27 in1025.1 mb 0.00 in0.0 mm 0.00 in0.0 mm 0.00 in0.0 mm
01:04 AM 48.4°F9.1°C 44.1°F6.7°C 85% 0.7 mph ESE1.1 kmh ESE 1.1 mph1.8 kmh 30.27 in1025.1 mb 0.00 in0.0 mm 0.00 in0.0 mm 0.00 in0.0 mm
12:59 AM 48.4°F9.1°C 44.1°F6.7°C 85% 2.0 mph WSW3.2 kmh WSW 3.4 mph5.5 kmh 30.27 in1025.1 mb 0.00 in0.0 mm 0.00 in0.0 mm 0.00 in0.0 mm
12:54 AM 48.6°F9.2°C 43.9°F6.6°C 84% 0.9 mph S1.4 kmh S 3.4 mph5.5 kmh 30.27 in1025.1 mb 0.00 in0.0 mm 0.00 in0.0 mm 0.00 in0.0 mm
12:49 AM 48.6°F9.2°C 43.5°F6.4°C 83% 0.2 mph E0.3 kmh E 1.1 mph1.8 kmh 30.27 in1025.1 mb 0.00 in0.0 mm 0.00 in0.0 mm 0.00 in0.0 mm
12:44 AM 48.6°F9.2°C 43.5°F6.4°C 83% 3.4 mph SSW5.5 kmh SSW 6.9 mph11.1 kmh 30.28 in1025.4 mb 0.00 in0.0 mm 0.00 in0.0 mm 0.00 in0.0 mm
12:39 AM 48.7°F9.3°C 43.5°F6.4°C 82% 1.1 mph WSW1.8 kmh WSW 1.1 mph1.8 kmh 30.27 in1025.1 mb 0.00 in0.0 mm 0.00 in0.0 mm 0.00 in0.0 mm
12:34 AM 48.7°F9.3°C 43.2°F6.2°C 81% 0.2 mph ENE0.3 kmh ENE 1.1 mph1.8 kmh 30.27 in1025.1 mb 0.00 in0.0 mm 0.00 in0.0 mm 0.00 in0.0 mm
12:29 AM 48.7°F9.3°C 42.8°F6.0°C 80% 2.7 mph E4.3 kmh E 4.5 mph7.2 kmh 30.28 in1025.4 mb 0.00 in0.0 mm 0.00 in0.0 mm 0.00 in0.0 mm
12:24 AM 48.7°F9.3°C 42.8°F6.0°C 80% 2.2 mph SW3.5 kmh SW 2.2 mph3.5 kmh 30.28 in1025.4 mb 0.00 in0.0 mm 0.00 in0.0 mm 0.00 in0.0 mm
12:19 AM 48.6°F9.2°C 42.6°F5.9°C 80% 1.8 mph S2.9 kmh S 3.4 mph5.5 kmh 30.29 in1025.7 mb 0.00 in0.0 mm 0.00 in0.0 mm 0.00 in0.0 mm
12:14 AM 48.6°F9.2°C 42.6°F5.9°C 80% 1.6 mph SE2.6 kmh SE 2.2 mph3.5 kmh 30.29 in1025.7 mb 0.00 in0.0 mm 0.00 in0.0 mm 0.00 in0.0 mm
12:09 AM 48.4°F9.1°C 42.4°F5.8°C 80% 1.3 mph SE2.1 kmh SE 2.2 mph3.5 kmh 30.29 in1025.7 mb 0.00 in0.0 mm 0.00 in0.0 mm 0.00 in0.0 mm
12:04 AM 48.6°F9.2°C 42.6°F5.9°C 80% Calm Calm -- 30.29 in1025.7 mb 0.00 in0.0 mm 0.00 in0.0 mm 0.00 in0.0 mm